Impacts METAR Board
IDs:

KCLL - College Station/East, TX, US

Updated at: 0000 UTC 30 May 2020
Potential Impact None Slight Moderate High
Time 29/12Z 29/13Z 29/14Z 29/15Z 29/16Z 29/17Z 29/18Z 29/19Z 29/20Z 29/21Z 29/22Z 29/23Z 30/00Z
Temp71 74 76 78 80 82 84 85 86 88 88 87 85
Dewpt66 66 67 66 66 65 66 66 62 61 59 58 58
Altim30.06 30.08 30.09 30.08 30.08 30.08 30.06 30.08 30.08 30.07 30.05 30.04 30.04
VIS10 10 10 10 10 10 10 10 10 10 10 10 10
CIG-- -- -- -- -- -- -- -- -- -- -- -- --
CoverCLRCLRCLRCLRCLRCLRFEWSCTSCTCLRCLRCLRCLR
FltCatVFRVFRVFRVFRVFRVFRVFRVFRVFRVFRVFRVFRVFR
WX--------------------------
WDir3501036020103602035020202036010
WSpd7 7 9 11 10 10 9 6 12 10 13 14 11
WGst-- -- -- -- -- 17 -- -- 17 -- 19 19 --
Raw hourly METARs
KCLL 291153Z AUTO 35007KT 10SM CLR 22/19 A3006 RMK AO2 SLP173 T02170189 10239 20200 53012
KCLL 291253Z 01007KT 10SM CLR 23/19 A3008 RMK AO2 SLP182 T02330189
KCLL 291353Z 36009KT 10SM CLR 24/19 A3009 RMK AO2 SLP184 T02440194
KCLL 291453Z 02011KT 10SM CLR 26/19 A3008 RMK AO2 SLP183 T02560189 50009
KCLL 291553Z 01010KT 10SM CLR 27/19 A3008 RMK AO2 SLP181 T02670189
KCLL 291653Z 36010G17KT 10SM CLR 28/18 A3008 RMK AO2 SLP182 T02780183
KCLL 291753Z 02009KT 10SM FEW038 29/19 A3006 RMK AO2 SLP176 T02890189 10289 20217 58007
KCLL 291853Z 35006KT 10SM SCT045 29/19 A3008 RMK AO2 SLP183 T02940189
KCLL 291953Z 02012G17KT 350V060 10SM SCT050 30/17 A3008 RMK AO2 SLP182 T03000167
KCLL 292053Z 02010KT 10SM CLR 31/16 A3007 RMK AO2 SLP177 T03110161 50001
KCLL 292153Z 02013G19KT 10SM CLR 31/15 A3005 RMK AO2 SLP170 T03110150
KCLL 292253Z 36014G19KT 10SM CLR 31/14 A3004 RMK AO2 SLP169 T03060144
KCLL 292353Z 01011KT 10SM CLR 29/14 A3004 RMK AO2 SLP167 T02940144 10311 20283 56009